sensor_id;sensor_type;location;lat;lon;timestamp;temperature;humidity
22678;DHT22;26259;50.214;18.620;2022-09-16T00:01:19;12.50;99.90
22678;DHT22;26259;50.214;18.620;2022-09-16T00:03:46;12.60;99.90
22678;DHT22;26259;50.214;18.620;2022-09-16T00:06:26;12.60;99.90
22678;DHT22;26259;50.214;18.620;2022-09-16T00:08:55;12.50;99.90
22678;DHT22;26259;50.214;18.620;2022-09-16T00:11:20;12.50;99.90
22678;DHT22;26259;50.214;18.620;2022-09-16T00:13:46;12.50;99.90
22678;DHT22;26259;50.214;18.620;2022-09-16T00:16:21;12.50;99.90
22678;DHT22;26259;50.214;18.620;2022-09-16T00:18:47;12.50;99.90
22678;DHT22;26259;50.214;18.620;2022-09-16T00:21:13;12.50;99.90
22678;DHT22;26259;50.214;18.620;2022-09-16T00:23:38;12.50;99.90
22678;DHT22;26259;50.214;18.620;2022-09-16T00:26:05;12.50;99.90
22678;DHT22;26259;50.214;18.620;2022-09-16T00:28:30;12.50;99.90
22678;DHT22;26259;50.214;18.620;2022-09-16T00:31:00;12.50;99.90
22678;DHT22;26259;50.214;18.620;2022-09-16T00:33:27;12.40;99.90
22678;DHT22;26259;50.214;18.620;2022-09-16T00:36:13;12.40;99.90
22678;DHT22;26259;50.214;18.620;2022-09-16T00:38:40;12.50;99.90
22678;DHT22;26259;50.214;18.620;2022-09-16T00:41:05;12.50;99.90
22678;DHT22;26259;50.214;18.620;2022-09-16T00:46:16;12.50;99.90
22678;DHT22;26259;50.214;18.620;2022-09-16T00:48:44;12.50;99.90
22678;DHT22;26259;50.214;18.620;2022-09-16T00:51:10;12.50;99.90
22678;DHT22;26259;50.214;18.620;2022-09-16T00:53:43;12.50;99.90
22678;DHT22;26259;50.214;18.620;2022-09-16T00:56:11;12.50;99.90
22678;DHT22;26259;50.214;18.620;2022-09-16T00:58:46;12.40;99.90
22678;DHT22;26259;50.214;18.620;2022-09-16T01:01:12;12.40;99.90
22678;DHT22;26259;50.214;18.620;2022-09-16T01:06:14;12.40;99.90
22678;DHT22;26259;50.214;18.620;2022-09-16T01:08:44;12.40;99.90
22678;DHT22;26259;50.214;18.620;2022-09-16T01:11:10;12.40;99.90
22678;DHT22;26259;50.214;18.620;2022-09-16T01:13:37;12.50;99.90
22678;DHT22;26259;50.214;18.620;2022-09-16T01:24:12;12.50;99.90
22678;DHT22;26259;50.214;18.620;2022-09-16T01:29:25;12.60;99.90
22678;DHT22;26259;50.214;18.620;2022-09-16T01:40:47;12.40;99.90
22678;DHT22;26259;50.214;18.620;2022-09-16T01:43:20;12.40;99.90
22678;DHT22;26259;50.214;18.620;2022-09-16T01:48:24;12.40;99.90
22678;DHT22;26259;50.214;18.620;2022-09-16T01:51:04;12.30;99.90
22678;DHT22;26259;50.214;18.620;2022-09-16T01:56:22;12.40;99.90
22678;DHT22;26259;50.214;18.620;2022-09-16T01:59:02;12.50;99.90
22678;DHT22;26259;50.214;18.620;2022-09-16T02:01:33;12.50;99.90
22678;DHT22;26259;50.214;18.620;2022-09-16T02:06:37;12.40;99.90
22678;DHT22;26259;50.214;18.620;2022-09-16T02:11:41;12.30;99.90
22678;DHT22;26259;50.214;18.620;2022-09-16T02:14:26;12.30;99.90
22678;DHT22;26259;50.214;18.620;2022-09-16T02:19:25;12.20;99.90
22678;DHT22;26259;50.214;18.620;2022-09-16T02:21:53;12.20;99.90
22678;DHT22;26259;50.214;18.620;2022-09-16T02:24:21;12.20;99.90
22678;DHT22;26259;50.214;18.620;2022-09-16T02:26:56;12.10;99.90
22678;DHT22;26259;50.214;18.620;2022-09-16T02:29:26;12.10;99.90
22678;DHT22;26259;50.214;18.620;2022-09-16T02:31:57;12.00;99.90
22678;DHT22;26259;50.214;18.620;2022-09-16T02:34:33;12.00;99.90
22678;DHT22;26259;50.214;18.620;2022-09-16T02:37:07;11.90;99.90
22678;DHT22;26259;50.214;18.620;2022-09-16T02:39:37;11.90;99.90
22678;DHT22;26259;50.214;18.620;2022-09-16T02:42:03;11.90;99.90
22678;DHT22;26259;50.214;18.620;2022-09-16T02:44:30;11.80;99.90
22678;DHT22;26259;50.214;18.620;2022-09-16T02:47:30;11.70;99.90
22678;DHT22;26259;50.214;18.620;2022-09-16T02:50:12;11.70;99.90
22678;DHT22;26259;50.214;18.620;2022-09-16T02:52:44;11.50;99.90
22678;DHT22;26259;50.214;18.620;2022-09-16T02:55:26;11.50;99.90
22678;DHT22;26259;50.214;18.620;2022-09-16T02:57:53;11.40;99.90
22678;DHT22;26259;50.214;18.620;2022-09-16T03:00:18;11.40;99.90
22678;DHT22;26259;50.214;18.620;2022-09-16T03:02:45;11.40;99.90
22678;DHT22;26259;50.214;18.620;2022-09-16T03:05:10;11.30;99.90
22678;DHT22;26259;50.214;18.620;2022-09-16T03:07:38;11.30;99.90
22678;DHT22;26259;50.214;18.620;2022-09-16T03:10:07;11.20;99.90
22678;DHT22;26259;50.214;18.620;2022-09-16T03:12:44;11.10;99.90
22678;DHT22;26259;50.214;18.620;2022-09-16T03:28:21;10.70;99.90
22678;DHT22;26259;50.214;18.620;2022-09-16T03:33:54;10.50;99.90
22678;DHT22;26259;50.214;18.620;2022-09-16T03:36:28;10.40;99.90
22678;DHT22;26259;50.214;18.620;2022-09-16T03:38:58;10.40;99.90
22678;DHT22;26259;50.214;18.620;2022-09-16T03:41:27;10.30;99.90
22678;DHT22;26259;50.214;18.620;2022-09-16T03:43:55;10.20;99.90
22678;DHT22;26259;50.214;18.620;2022-09-16T03:46:21;10.20;99.90
22678;DHT22;26259;50.214;18.620;2022-09-16T03:48:47;10.10;99.90
22678;DHT22;26259;50.214;18.620;2022-09-16T03:51:13;10.10;99.90
22678;DHT22;26259;50.214;18.620;2022-09-16T03:53:39;10.00;99.90
22678;DHT22;26259;50.214;18.620;2022-09-16T03:56:05;10.00;99.90
22678;DHT22;26259;50.214;18.620;2022-09-16T03:58:30;10.00;99.90
22678;DHT22;26259;50.214;18.620;2022-09-16T04:00:56;10.00;99.90
22678;DHT22;26259;50.214;18.620;2022-09-16T04:03:21;10.00;99.90
22678;DHT22;26259;50.214;18.620;2022-09-16T04:05:52;10.10;99.90
22678;DHT22;26259;50.214;18.620;2022-09-16T04:08:17;10.10;99.90
22678;DHT22;26259;50.214;18.620;2022-09-16T04:10:53;10.20;99.90
22678;DHT22;26259;50.214;18.620;2022-09-16T04:13:18;10.30;99.90
22678;DHT22;26259;50.214;18.620;2022-09-16T04:15:44;10.30;99.90
22678;DHT22;26259;50.214;18.620;2022-09-16T04:18:09;10.30;99.90
22678;DHT22;26259;50.214;18.620;2022-09-16T04:20:35;10.30;99.90
22678;DHT22;26259;50.214;18.620;2022-09-16T04:23:00;10.30;99.90
22678;DHT22;26259;50.214;18.620;2022-09-16T04:25:26;10.40;99.90
22678;DHT22;26259;50.214;18.620;2022-09-16T04:27:51;10.40;99.90
22678;DHT22;26259;50.214;18.620;2022-09-16T04:30:17;10.40;99.90
22678;DHT22;26259;50.214;18.620;2022-09-16T04:32:44;10.40;99.90
22678;DHT22;26259;50.214;18.620;2022-09-16T04:35:10;10.50;99.90
22678;DHT22;26259;50.214;18.620;2022-09-16T04:37:35;10.50;99.90
22678;DHT22;26259;50.214;18.620;2022-09-16T04:40:01;10.50;99.90
22678;DHT22;26259;50.214;18.620;2022-09-16T04:42:27;10.50;99.90
22678;DHT22;26259;50.214;18.620;2022-09-16T04:44:52;10.60;99.90
22678;DHT22;26259;50.214;18.620;2022-09-16T04:47:18;10.60;99.90
22678;DHT22;26259;50.214;18.620;2022-09-16T04:49:44;10.50;99.90
22678;DHT22;26259;50.214;18.620;2022-09-16T04:52:09;10.50;99.90
22678;DHT22;26259;50.214;18.620;2022-09-16T04:54:35;10.60;99.90
22678;DHT22;26259;50.214;18.620;2022-09-16T04:57:01;10.60;99.90
22678;DHT22;26259;50.214;18.620;2022-09-16T04:59:26;10.70;99.90
22678;DHT22;26259;50.214;18.620;2022-09-16T05:01:52;10.70;99.90
22678;DHT22;26259;50.214;18.620;2022-09-16T05:04:17;10.80;99.90
22678;DHT22;26259;50.214;18.620;2022-09-16T05:06:43;10.90;99.90
22678;DHT22;26259;50.214;18.620;2022-09-16T05:09:10;11.00;99.90
22678;DHT22;26259;50.214;18.620;2022-09-16T05:11:37;11.20;99.90
22678;DHT22;26259;50.214;18.620;2022-09-16T05:14:14;11.30;99.90
22678;DHT22;26259;50.214;18.620;2022-09-16T05:16:40;11.40;99.90
22678;DHT22;26259;50.214;18.620;2022-09-16T05:19:06;11.60;99.90
22678;DHT22;26259;50.214;18.620;2022-09-16T05:21:34;11.80;99.90
22678;DHT22;26259;50.214;18.620;2022-09-16T05:24:02;11.90;99.90
22678;DHT22;26259;50.214;18.620;2022-09-16T05:26:30;12.20;99.90
22678;DHT22;26259;50.214;18.620;2022-09-16T05:28:59;12.40;99.90
22678;DHT22;26259;50.214;18.620;2022-09-16T05:31:27;12.60;99.90
22678;DHT22;26259;50.214;18.620;2022-09-16T05:33:58;12.70;99.90
22678;DHT22;26259;50.214;18.620;2022-09-16T05:36:25;12.80;99.90
22678;DHT22;26259;50.214;18.620;2022-09-16T05:38:51;13.00;99.90
22678;DHT22;26259;50.214;18.620;2022-09-16T05:41:16;13.00;99.90
22678;DHT22;26259;50.214;18.620;2022-09-16T05:43:42;13.10;99.90
22678;DHT22;26259;50.214;18.620;2022-09-16T05:46:18;13.30;99.90
22678;DHT22;26259;50.214;18.620;2022-09-16T05:48:44;13.40;99.90
22678;DHT22;26259;50.214;18.620;2022-09-16T05:51:12;13.50;99.90
22678;DHT22;26259;50.214;18.620;2022-09-16T05:53:39;13.60;99.90
22678;DHT22;26259;50.214;18.620;2022-09-16T05:56:07;13.80;99.90
22678;DHT22;26259;50.214;18.620;2022-09-16T05:58:33;14.00;99.90
22678;DHT22;26259;50.214;18.620;2022-09-16T06:01:14;14.30;99.90
22678;DHT22;26259;50.214;18.620;2022-09-16T06:03:41;14.30;99.90
22678;DHT22;26259;50.214;18.620;2022-09-16T06:06:11;14.20;99.90
22678;DHT22;26259;50.214;18.620;2022-09-16T06:08:38;14.20;99.90
22678;DHT22;26259;50.214;18.620;2022-09-16T06:11:06;14.00;99.90
22678;DHT22;26259;50.214;18.620;2022-09-16T06:13:32;13.90;99.90
22678;DHT22;26259;50.214;18.620;2022-09-16T06:15:58;13.90;99.90
22678;DHT22;26259;50.214;18.620;2022-09-16T06:18:25;13.90;99.90
22678;DHT22;26259;50.214;18.620;2022-09-16T06:20:52;13.90;99.90
22678;DHT22;26259;50.214;18.620;2022-09-16T06:23:18;14.00;99.90
22678;DHT22;26259;50.214;18.620;2022-09-16T06:25:44;14.10;99.90
22678;DHT22;26259;50.214;18.620;2022-09-16T06:28:10;14.20;99.90
22678;DHT22;26259;50.214;18.620;2022-09-16T06:30:40;14.30;99.90
22678;DHT22;26259;50.214;18.620;2022-09-16T06:33:06;14.40;99.90
22678;DHT22;26259;50.214;18.620;2022-09-16T06:35:33;14.40;99.90
22678;DHT22;26259;50.214;18.620;2022-09-16T06:37:59;14.40;99.90
22678;DHT22;26259;50.214;18.620;2022-09-16T06:43:01;14.60;99.90
22678;DHT22;26259;50.214;18.620;2022-09-16T06:45:26;14.70;99.90
22678;DHT22;26259;50.214;18.620;2022-09-16T06:47:58;14.80;99.90
22678;DHT22;26259;50.214;18.620;2022-09-16T06:50:23;14.90;99.90
22678;DHT22;26259;50.214;18.620;2022-09-16T06:52:51;15.00;99.90
22678;DHT22;26259;50.214;18.620;2022-09-16T06:55:17;14.90;99.90
22678;DHT22;26259;50.214;18.620;2022-09-16T06:57:42;14.90;99.90
22678;DHT22;26259;50.214;18.620;2022-09-16T07:00:09;15.00;99.90
22678;DHT22;26259;50.214;18.620;2022-09-16T07:02:35;15.00;99.90
22678;DHT22;26259;50.214;18.620;2022-09-16T07:05:00;15.10;99.90
22678;DHT22;26259;50.214;18.620;2022-09-16T07:07:29;15.20;99.90
22678;DHT22;26259;50.214;18.620;2022-09-16T07:09:56;15.20;99.90
22678;DHT22;26259;50.214;18.620;2022-09-16T07:12:21;15.30;99.90
22678;DHT22;26259;50.214;18.620;2022-09-16T07:14:47;15.30;99.90
22678;DHT22;26259;50.214;18.620;2022-09-16T07:17:12;15.40;99.90
22678;DHT22;26259;50.214;18.620;2022-09-16T07:19:38;15.40;99.90
22678;DHT22;26259;50.214;18.620;2022-09-16T07:22:06;15.60;99.90
22678;DHT22;26259;50.214;18.620;2022-09-16T07:24:31;15.70;99.90
22678;DHT22;26259;50.214;18.620;2022-09-16T07:26:57;15.90;99.90
22678;DHT22;26259;50.214;18.620;2022-09-16T07:29:22;16.00;99.90
22678;DHT22;26259;50.214;18.620;2022-09-16T07:31:48;16.10;99.90
22678;DHT22;26259;50.214;18.620;2022-09-16T07:34:14;16.10;99.90
22678;DHT22;26259;50.214;18.620;2022-09-16T07:36:46;16.20;99.90
22678;DHT22;26259;50.214;18.620;2022-09-16T07:39:14;16.30;99.90
22678;DHT22;26259;50.214;18.620;2022-09-16T07:41:41;16.30;99.90
22678;DHT22;26259;50.214;18.620;2022-09-16T07:44:10;16.30;99.90
22678;DHT22;26259;50.214;18.620;2022-09-16T07:46:37;16.30;99.90
22678;DHT22;26259;50.214;18.620;2022-09-16T07:49:05;16.20;99.90
22678;DHT22;26259;50.214;18.620;2022-09-16T07:51:30;16.10;99.90
22678;DHT22;26259;50.214;18.620;2022-09-16T07:53:59;16.10;99.90
22678;DHT22;26259;50.214;18.620;2022-09-16T07:56:27;16.00;99.90
22678;DHT22;26259;50.214;18.620;2022-09-16T07:58:53;16.00;99.90
22678;DHT22;26259;50.214;18.620;2022-09-16T08:01:20;16.10;99.90
22678;DHT22;26259;50.214;18.620;2022-09-16T08:03:46;16.10;99.90
22678;DHT22;26259;50.214;18.620;2022-09-16T08:06:14;16.00;99.90
22678;DHT22;26259;50.214;18.620;2022-09-16T08:08:41;16.00;99.90
22678;DHT22;26259;50.214;18.620;2022-09-16T08:11:08;15.90;99.90
22678;DHT22;26259;50.214;18.620;2022-09-16T08:13:36;16.00;99.90
22678;DHT22;26259;50.214;18.620;2022-09-16T08:16:09;16.10;99.90
22678;DHT22;26259;50.214;18.620;2022-09-16T08:18:35;16.20;99.90
22678;DHT22;26259;50.214;18.620;2022-09-16T08:21:23;16.30;99.90
22678;DHT22;26259;50.214;18.620;2022-09-16T08:23:49;16.50;99.90
22678;DHT22;26259;50.214;18.620;2022-09-16T08:26:16;16.90;99.90
22678;DHT22;26259;50.214;18.620;2022-09-16T08:28:43;17.20;99.90
22678;DHT22;26259;50.214;18.620;2022-09-16T08:31:09;17.20;99.90
22678;DHT22;26259;50.214;18.620;2022-09-16T08:33:38;17.20;96.90
22678;DHT22;26259;50.214;18.620;2022-09-16T08:36:06;17.20;97.40
22678;DHT22;26259;50.214;18.620;2022-09-16T08:38:33;17.20;97.70
22678;DHT22;26259;50.214;18.620;2022-09-16T08:43:52;17.40;94.20
22678;DHT22;26259;50.214;18.620;2022-09-16T08:46:35;17.60;97.30
22678;DHT22;26259;50.214;18.620;2022-09-16T08:51:40;18.20;91.30
22678;DHT22;26259;50.214;18.620;2022-09-16T08:54:12;18.00;90.00
22678;DHT22;26259;50.214;18.620;2022-09-16T08:56:40;18.00;89.60
22678;DHT22;26259;50.214;18.620;2022-09-16T08:59:13;17.90;88.90
22678;DHT22;26259;50.214;18.620;2022-09-16T09:01:57;17.70;87.10
22678;DHT22;26259;50.214;18.620;2022-09-16T09:04:24;17.50;90.80
22678;DHT22;26259;50.214;18.620;2022-09-16T09:14:53;17.40;92.00
22678;DHT22;26259;50.214;18.620;2022-09-16T09:34:12;18.00;82.00
22678;DHT22;26259;50.214;18.620;2022-09-16T09:39:59;17.90;81.70
22678;DHT22;26259;50.214;18.620;2022-09-16T09:42:33;17.80;81.20
22678;DHT22;26259;50.214;18.620;2022-09-16T09:45:13;17.90;81.90
22678;DHT22;26259;50.214;18.620;2022-09-16T09:47:49;18.10;81.90
22678;DHT22;26259;50.214;18.620;2022-09-16T09:50:45;18.40;79.50
22678;DHT22;26259;50.214;18.620;2022-09-16T09:55:41;18.40;79.70
22678;DHT22;26259;50.214;18.620;2022-09-16T10:00:38;18.40;75.60
22678;DHT22;26259;50.214;18.620;2022-09-16T10:03:15;18.40;73.60
22678;DHT22;26259;50.214;18.620;2022-09-16T10:05:43;18.10;76.40
22678;DHT22;26259;50.214;18.620;2022-09-16T10:10:58;17.70;79.00
22678;DHT22;26259;50.214;18.620;2022-09-16T10:13:25;17.60;75.70
22678;DHT22;26259;50.214;18.620;2022-09-16T10:16:07;17.30;80.40
22678;DHT22;26259;50.214;18.620;2022-09-16T10:18:35;17.30;81.30
22678;DHT22;26259;50.214;18.620;2022-09-16T10:21:09;17.20;76.60
22678;DHT22;26259;50.214;18.620;2022-09-16T10:23:36;17.00;77.70
22678;DHT22;26259;50.214;18.620;2022-09-16T10:26:27;16.90;81.30
22678;DHT22;26259;50.214;18.620;2022-09-16T10:28:55;16.80;81.30
22678;DHT22;26259;50.214;18.620;2022-09-16T10:31:22;16.80;84.50
22678;DHT22;26259;50.214;18.620;2022-09-16T10:33:49;17.00;84.90
22678;DHT22;26259;50.214;18.620;2022-09-16T10:36:20;17.10;83.00
22678;DHT22;26259;50.214;18.620;2022-09-16T10:38:55;17.10;79.90
22678;DHT22;26259;50.214;18.620;2022-09-16T10:41:27;17.10;76.50
22678;DHT22;26259;50.214;18.620;2022-09-16T10:43:59;17.10;80.20
22678;DHT22;26259;50.214;18.620;2022-09-16T10:46:27;17.30;82.50
22678;DHT22;26259;50.214;18.620;2022-09-16T10:48:58;17.40;77.00
22678;DHT22;26259;50.214;18.620;2022-09-16T10:51:27;17.50;78.00
22678;DHT22;26259;50.214;18.620;2022-09-16T10:54:01;17.40;73.80
22678;DHT22;26259;50.214;18.620;2022-09-16T10:56:30;17.50;72.70
22678;DHT22;26259;50.214;18.620;2022-09-16T10:59:10;17.70;75.10
22678;DHT22;26259;50.214;18.620;2022-09-16T11:04:25;18.20;73.20
22678;DHT22;26259;50.214;18.620;2022-09-16T11:07:06;18.40;69.10
22678;DHT22;26259;50.214;18.620;2022-09-16T11:09:51;18.30;69.20
22678;DHT22;26259;50.214;18.620;2022-09-16T11:18:39;17.70;69.20
22678;DHT22;26259;50.214;18.620;2022-09-16T11:24:02;17.70;72.60
22678;DHT22;26259;50.214;18.620;2022-09-16T11:32:18;17.70;69.60
22678;DHT22;26259;50.214;18.620;2022-09-16T11:37:31;17.90;68.70
22678;DHT22;26259;50.214;18.620;2022-09-16T11:40:22;17.90;65.80
22678;DHT22;26259;50.214;18.620;2022-09-16T11:45:49;18.00;68.30
22678;DHT22;26259;50.214;18.620;2022-09-16T11:48:33;18.20;67.20
22678;DHT22;26259;50.214;18.620;2022-09-16T11:54:12;18.70;66.40
22678;DHT22;26259;50.214;18.620;2022-09-16T11:56:47;18.60;65.30
22678;DHT22;26259;50.214;18.620;2022-09-16T12:01:45;18.10;68.60
22678;DHT22;26259;50.214;18.620;2022-09-16T12:06:57;17.90;73.20
22678;DHT22;26259;50.214;18.620;2022-09-16T12:09:53;17.80;76.60
22678;DHT22;26259;50.214;18.620;2022-09-16T12:12:30;17.80;77.60
22678;DHT22;26259;50.214;18.620;2022-09-16T12:15:04;17.80;78.50
22678;DHT22;26259;50.214;18.620;2022-09-16T12:17:34;17.90;79.10
22678;DHT22;26259;50.214;18.620;2022-09-16T12:20:26;18.00;76.90
22678;DHT22;26259;50.214;18.620;2022-09-16T12:26:23;17.80;69.70
22678;DHT22;26259;50.214;18.620;2022-09-16T12:31:48;17.80;71.40
22678;DHT22;26259;50.214;18.620;2022-09-16T12:37:22;18.10;72.60
22678;DHT22;26259;50.214;18.620;2022-09-16T12:39:51;17.90;73.90
22678;DHT22;26259;50.214;18.620;2022-09-16T12:48:02;18.20;73.90
22678;DHT22;26259;50.214;18.620;2022-09-16T13:01:47;17.90;77.40
22678;DHT22;26259;50.214;18.620;2022-09-16T13:04:27;17.90;76.50
22678;DHT22;26259;50.214;18.620;2022-09-16T13:06:55;18.00;74.80
22678;DHT22;26259;50.214;18.620;2022-09-16T13:09:30;18.10;74.90
22678;DHT22;26259;50.214;18.620;2022-09-16T13:12:21;18.30;75.40
22678;DHT22;26259;50.214;18.620;2022-09-16T13:14:52;18.40;73.40
22678;DHT22;26259;50.214;18.620;2022-09-16T13:20:03;18.40;73.60
22678;DHT22;26259;50.214;18.620;2022-09-16T13:30:53;18.10;71.30
22678;DHT22;26259;50.214;18.620;2022-09-16T13:33:25;18.00;70.90
22678;DHT22;26259;50.214;18.620;2022-09-16T13:36:09;17.90;71.40
22678;DHT22;26259;50.214;18.620;2022-09-16T13:38:48;17.80;71.90
22678;DHT22;26259;50.214;18.620;2022-09-16T13:41:37;17.80;73.30
22678;DHT22;26259;50.214;18.620;2022-09-16T13:46:51;17.80;72.70
22678;DHT22;26259;50.214;18.620;2022-09-16T13:49:24;17.70;73.00
22678;DHT22;26259;50.214;18.620;2022-09-16T13:51:52;17.70;74.50
22678;DHT22;26259;50.214;18.620;2022-09-16T13:54:25;17.80;71.70
22678;DHT22;26259;50.214;18.620;2022-09-16T13:57:01;17.80;75.20
22678;DHT22;26259;50.214;18.620;2022-09-16T13:59:32;17.50;78.30
22678;DHT22;26259;50.214;18.620;2022-09-16T14:02:23;17.30;81.30
22678;DHT22;26259;50.214;18.620;2022-09-16T14:05:27;17.20;83.40
22678;DHT22;26259;50.214;18.620;2022-09-16T14:08:17;17.10;82.90
22678;DHT22;26259;50.214;18.620;2022-09-16T14:11:05;16.90;85.60
22678;DHT22;26259;50.214;18.620;2022-09-16T14:13:48;16.90;86.00
22678;DHT22;26259;50.214;18.620;2022-09-16T14:16:23;16.90;88.00
22678;DHT22;26259;50.214;18.620;2022-09-16T14:21:22;16.60;89.20
22678;DHT22;26259;50.214;18.620;2022-09-16T14:23:48;16.50;91.10
22678;DHT22;26259;50.214;18.620;2022-09-16T14:26:16;16.40;91.90
22678;DHT22;26259;50.214;18.620;2022-09-16T14:28:42;16.20;91.30
22678;DHT22;26259;50.214;18.620;2022-09-16T14:31:13;16.10;92.60
22678;DHT22;26259;50.214;18.620;2022-09-16T14:33:50;16.00;94.30
22678;DHT22;26259;50.214;18.620;2022-09-16T14:36:19;16.00;95.20
22678;DHT22;26259;50.214;18.620;2022-09-16T14:38:53;15.90;95.10
22678;DHT22;26259;50.214;18.620;2022-09-16T14:41:47;15.90;94.70
22678;DHT22;26259;50.214;18.620;2022-09-16T14:49:28;15.90;94.90
22678;DHT22;26259;50.214;18.620;2022-09-16T14:51:57;15.90;95.30
22678;DHT22;26259;50.214;18.620;2022-09-16T14:54:25;15.90;94.80
22678;DHT22;26259;50.214;18.620;2022-09-16T14:56:55;15.90;94.90
22678;DHT22;26259;50.214;18.620;2022-09-16T14:59:24;15.90;95.20
22678;DHT22;26259;50.214;18.620;2022-09-16T15:01:51;16.00;95.30
22678;DHT22;26259;50.214;18.620;2022-09-16T15:04:26;16.10;95.80
22678;DHT22;26259;50.214;18.620;2022-09-16T15:06:56;16.20;96.50
22678;DHT22;26259;50.214;18.620;2022-09-16T15:09:43;16.30;96.70
22678;DHT22;26259;50.214;18.620;2022-09-16T15:12:27;16.30;98.50
22678;DHT22;26259;50.214;18.620;2022-09-16T15:14:53;16.20;98.20
22678;DHT22;26259;50.214;18.620;2022-09-16T15:17:24;16.20;99.90
22678;DHT22;26259;50.214;18.620;2022-09-16T15:19:55;16.20;99.70
22678;DHT22;26259;50.214;18.620;2022-09-16T15:22:21;16.20;99.90
22678;DHT22;26259;50.214;18.620;2022-09-16T15:24:51;16.30;99.90
22678;DHT22;26259;50.214;18.620;2022-09-16T15:27:25;16.30;99.90
22678;DHT22;26259;50.214;18.620;2022-09-16T15:29:59;16.30;99.90
22678;DHT22;26259;50.214;18.620;2022-09-16T15:32:27;16.30;99.90
22678;DHT22;26259;50.214;18.620;2022-09-16T15:35:12;16.30;99.90
22678;DHT22;26259;50.214;18.620;2022-09-16T15:37:41;16.30;99.90
22678;DHT22;26259;50.214;18.620;2022-09-16T15:43:14;16.30;99.90
22678;DHT22;26259;50.214;18.620;2022-09-16T15:45:42;16.30;99.90
22678;DHT22;26259;50.214;18.620;2022-09-16T15:48:17;16.40;99.90
22678;DHT22;26259;50.214;18.620;2022-09-16T15:51:05;16.40;99.90
22678;DHT22;26259;50.214;18.620;2022-09-16T15:53:40;16.30;99.90
22678;DHT22;26259;50.214;18.620;2022-09-16T15:56:07;16.30;99.90
22678;DHT22;26259;50.214;18.620;2022-09-16T15:58:38;16.10;99.90
22678;DHT22;26259;50.214;18.620;2022-09-16T16:06:09;16.00;99.90
22678;DHT22;26259;50.214;18.620;2022-09-16T16:08:49;16.10;99.90
22678;DHT22;26259;50.214;18.620;2022-09-16T16:11:17;16.00;99.90
22678;DHT22;26259;50.214;18.620;2022-09-16T16:13:43;15.90;99.90
22678;DHT22;26259;50.214;18.620;2022-09-16T16:16:10;15.90;99.90
22678;DHT22;26259;50.214;18.620;2022-09-16T16:18:37;15.80;99.90
22678;DHT22;26259;50.214;18.620;2022-09-16T16:21:07;15.70;99.90
22678;DHT22;26259;50.214;18.620;2022-09-16T16:23:34;15.70;99.90
22678;DHT22;26259;50.214;18.620;2022-09-16T16:26:02;15.50;99.90
22678;DHT22;26259;50.214;18.620;2022-09-16T16:28:27;15.40;99.90
22678;DHT22;26259;50.214;18.620;2022-09-16T16:31:09;15.20;99.90
22678;DHT22;26259;50.214;18.620;2022-09-16T16:33:35;15.10;99.90
22678;DHT22;26259;50.214;18.620;2022-09-16T16:36:01;15.00;99.90
22678;DHT22;26259;50.214;18.620;2022-09-16T16:38:26;14.90;99.90
22678;DHT22;26259;50.214;18.620;2022-09-16T16:40:52;14.80;99.90
22678;DHT22;26259;50.214;18.620;2022-09-16T16:43:17;14.70;99.90
22678;DHT22;26259;50.214;18.620;2022-09-16T16:45:43;14.70;99.90
22678;DHT22;26259;50.214;18.620;2022-09-16T16:48:08;14.60;99.90
22678;DHT22;26259;50.214;18.620;2022-09-16T16:50:36;14.50;99.90
22678;DHT22;26259;50.214;18.620;2022-09-16T16:53:01;14.40;99.90
22678;DHT22;26259;50.214;18.620;2022-09-16T16:55:27;14.20;99.90
22678;DHT22;26259;50.214;18.620;2022-09-16T16:57:53;14.10;99.90
22678;DHT22;26259;50.214;18.620;2022-09-16T17:00:18;14.10;99.90
22678;DHT22;26259;50.214;18.620;2022-09-16T17:02:44;13.90;99.90
22678;DHT22;26259;50.214;18.620;2022-09-16T17:05:09;13.80;99.90
22678;DHT22;26259;50.214;18.620;2022-09-16T17:07:35;13.60;99.90
22678;DHT22;26259;50.214;18.620;2022-09-16T17:10:01;13.40;99.90
22678;DHT22;26259;50.214;18.620;2022-09-16T17:12:27;13.30;99.90
22678;DHT22;26259;50.214;18.620;2022-09-16T17:14:52;13.20;99.90
22678;DHT22;26259;50.214;18.620;2022-09-16T17:17:18;13.10;99.90
22678;DHT22;26259;50.214;18.620;2022-09-16T17:19:44;13.00;99.90
22678;DHT22;26259;50.214;18.620;2022-09-16T17:22:10;12.90;99.90
22678;DHT22;26259;50.214;18.620;2022-09-16T17:24:35;12.90;99.90
22678;DHT22;26259;50.214;18.620;2022-09-16T17:27:01;12.80;99.90
22678;DHT22;26259;50.214;18.620;2022-09-16T17:29:26;12.80;99.90
22678;DHT22;26259;50.214;18.620;2022-09-16T17:31:52;12.70;99.90
22678;DHT22;26259;50.214;18.620;2022-09-16T17:34:19;12.70;99.90
22678;DHT22;26259;50.214;18.620;2022-09-16T17:36:46;12.70;99.90
22678;DHT22;26259;50.214;18.620;2022-09-16T17:39:14;12.70;99.90
22678;DHT22;26259;50.214;18.620;2022-09-16T17:41:41;12.70;99.90
22678;DHT22;26259;50.214;18.620;2022-09-16T17:44:09;12.70;99.90
22678;DHT22;26259;50.214;18.620;2022-09-16T17:46:35;12.60;99.90
22678;DHT22;26259;50.214;18.620;2022-09-16T17:49:06;12.60;99.90
22678;DHT22;26259;50.214;18.620;2022-09-16T17:51:33;12.60;99.90
22678;DHT22;26259;50.214;18.620;2022-09-16T17:54:00;12.70;99.90
22678;DHT22;26259;50.214;18.620;2022-09-16T17:56:25;12.70;99.90
22678;DHT22;26259;50.214;18.620;2022-09-16T17:58:52;12.80;99.90
22678;DHT22;26259;50.214;18.620;2022-09-16T18:01:21;12.70;99.90
22678;DHT22;26259;50.214;18.620;2022-09-16T18:03:48;12.70;99.90
22678;DHT22;26259;50.214;18.620;2022-09-16T18:06:21;12.60;99.90
22678;DHT22;26259;50.214;18.620;2022-09-16T18:08:47;12.50;99.90
22678;DHT22;26259;50.214;18.620;2022-09-16T18:11:14;12.50;99.90
22678;DHT22;26259;50.214;18.620;2022-09-16T18:13:40;12.50;99.90
22678;DHT22;26259;50.214;18.620;2022-09-16T18:16:08;12.60;99.90
22678;DHT22;26259;50.214;18.620;2022-09-16T18:18:35;12.70;99.90
22678;DHT22;26259;50.214;18.620;2022-09-16T18:21:02;12.60;99.90
22678;DHT22;26259;50.214;18.620;2022-09-16T18:23:28;12.70;99.90
22678;DHT22;26259;50.214;18.620;2022-09-16T18:25:55;12.70;99.90
22678;DHT22;26259;50.214;18.620;2022-09-16T18:28:21;12.70;99.90
22678;DHT22;26259;50.214;18.620;2022-09-16T18:30:59;12.70;99.90
22678;DHT22;26259;50.214;18.620;2022-09-16T18:33:24;12.70;99.90
22678;DHT22;26259;50.214;18.620;2022-09-16T18:35:50;12.60;99.90
22678;DHT22;26259;50.214;18.620;2022-09-16T18:38:16;12.50;99.90